Time;durP1;ratioP1;P1;durP2;ratioP2;P2;SDS_P1;SDS_P2;PMS_P1;PMS_P2;Temp;Humidity;BMP_temperature;BMP_pressure;BME280_temperature;BME280_humidity;BME280_pressure;Samples;Min_cycle;Max_cycle;Signal;HPM_P1;HPM_P2
2022/05/20 00:00:46;;;;;;;21.17;18.55;;;19.40;99.90;;;;;;5035104;28;20172;-47
2022/05/20 00:03:12;;;;;;;21.63;17.60;;;19.30;99.90;;;;;;5034696;28;20254;-48
2022/05/20 00:05:38;;;;;;;24.17;19.05;;;19.30;99.90;;;;;;5034576;28;20306;-49
2022/05/20 00:08:04;;;;;;;23.13;18.30;;;19.30;99.90;;;;;;5034230;28;20172;-48
2022/05/20 00:10:30;;;;;;;20.88;18.08;;;19.30;99.90;;;;;;5034665;28;20164;-48
2022/05/20 00:12:57;;;;;;;22.77;18.23;;;19.30;99.90;;;;;;5034864;28;20182;-48
2022/05/20 00:15:26;;;;;;;23.20;20.20;;;19.30;99.90;;;;;;5034826;28;20622;-48
2022/05/20 00:17:51;;;;;;;24.27;18.42;;;19.40;99.90;;;;;;5034891;28;20208;-47
2022/05/20 00:20:19;;;;;;;24.30;19.48;;;19.20;99.90;;;;;;5034845;28;20164;-48
2022/05/20 00:22:45;;;;;;;22.45;18.85;;;19.30;99.90;;;;;;5034495;28;20171;-47
2022/05/20 00:27:57;;;;;;;22.63;18.88;;;19.40;99.90;;;;;;5034594;28;20182;-47
2022/05/20 00:30:23;;;;;;;23.70;19.15;;;19.40;99.90;;;;;;5034576;28;20168;-47
2022/05/20 00:32:48;;;;;;;25.13;19.58;;;19.40;99.90;;;;;;5034768;28;20159;-47
2022/05/20 00:35:14;;;;;;;22.83;19.65;;;19.40;99.90;;;;;;5034489;28;20199;-47
2022/05/20 00:37:44;;;;;;;25.10;19.77;;;19.40;99.90;;;;;;5034421;28;20291;-47
2022/05/20 00:40:11;;;;;;;22.15;19.75;;;19.40;99.90;;;;;;5034390;28;20237;-47
2022/05/20 00:42:37;;;;;;;23.13;19.73;;;19.30;99.90;;;;;;5034820;28;20707;-48
2022/05/20 00:45:03;;;;;;;25.10;19.45;;;19.40;99.90;;;;;;5034472;28;20171;-48
2022/05/20 00:47:29;;;;;;;25.02;20.60;;;19.30;99.90;;;;;;5034158;28;20175;-47
2022/05/20 00:49:56;;;;;;;25.40;19.83;;;19.20;99.90;;;;;;5034053;28;20217;-47
2022/05/20 00:52:25;;;;;;;23.85;18.08;;;19.20;99.90;;;;;;5033948;28;20183;-46
2022/05/20 00:54:55;;;;;;;21.85;18.23;;;19.20;99.90;;;;;;5034438;28;20571;-47
2022/05/20 00:57:33;;;;;;;24.58;18.75;;;19.20;99.90;;;;;;5034053;28;20571;-48
2022/05/20 01:00:08;;;;;;;20.85;17.17;;;19.10;99.90;;;;;;5032524;28;20441;-48
2022/05/20 01:02:34;;;;;;;23.48;17.73;;;19.10;99.90;;;;;;5034015;28;20262;-48
2022/05/20 01:05:03;;;;;;;24.02;18.40;;;18.90;99.90;;;;;;5033589;28;20246;-47
2022/05/20 01:07:31;;;;;;;22.08;18.27;;;19.00;99.90;;;;;;5033602;28;20665;-47
2022/05/20 01:09:57;;;;;;;25.92;20.23;;;19.00;99.90;;;;;;5033575;28;20502;-48
2022/05/20 01:12:24;;;;;;;24.45;19.38;;;18.90;99.90;;;;;;5033551;28;20243;-46
2022/05/20 01:14:51;;;;;;;23.45;18.73;;;18.90;99.90;;;;;;5033786;28;20635;-48
2022/05/20 01:17:17;;;;;;;26.65;19.27;;;18.70;99.90;;;;;;5033327;28;20198;-48
2022/05/20 01:19:47;;;;;;;27.83;19.67;;;18.70;99.90;;;;;;5033440;28;20175;-47
2022/05/20 01:22:24;;;;;;;24.00;20.83;;;18.60;99.90;;;;;;5033337;28;20174;-48
2022/05/20 01:24:50;;;;;;;25.45;19.52;;;18.60;99.90;;;;;;5033523;28;20560;-47
2022/05/20 01:27:15;;;;;;;29.83;20.92;;;18.60;99.90;;;;;;5033265;28;20177;-47
2022/05/20 01:29:41;;;;;;;27.13;20.23;;;18.60;99.90;;;;;;5033128;28;20248;-47
2022/05/20 01:32:07;;;;;;;24.23;19.50;;;18.50;99.90;;;;;;5033380;28;20258;-48
2022/05/20 01:34:32;;;;;;;27.95;21.45;;;18.50;99.90;;;;;;5033115;28;20255;-48
2022/05/20 01:36:58;;;;;;;26.83;20.70;;;18.50;99.90;;;;;;5032277;28;20176;-47
2022/05/20 01:39:23;;;;;;;28.05;21.95;;;18.50;99.90;;;;;;5032975;28;20206;-47
2022/05/20 01:42:07;;;;;;;27.42;21.15;;;18.40;99.90;;;;;;5033322;28;20254;-48
2022/05/20 01:44:42;;;;;;;28.25;20.65;;;18.40;99.90;;;;;;5032999;28;20174;-48
2022/05/20 01:47:28;;;;;;;29.33;21.75;;;18.40;99.90;;;;;;5032881;28;20171;-49
2022/05/20 01:50:09;;;;;;;31.70;22.33;;;18.40;99.90;;;;;;5032860;28;20634;-47
2022/05/20 01:52:45;;;;;;;32.45;21.65;;;18.40;99.90;;;;;;5032826;28;20167;-48
2022/05/20 01:55:24;;;;;;;26.70;21.25;;;18.40;99.90;;;;;;5032701;28;20171;-47
2022/05/20 01:58:05;;;;;;;25.42;21.58;;;18.30;99.90;;;;;;5032960;28;20566;-46
2022/05/20 02:00:33;;;;;;;29.60;22.77;;;18.30;99.90;;;;;;5032731;28;20167;-48
2022/05/20 02:03:19;;;;;;;28.77;21.13;;;18.20;99.90;;;;;;5032634;28;20167;-47
2022/05/20 02:05:53;;;;;;;29.17;22.58;;;18.30;99.90;;;;;;5032231;28;20222;-47
2022/05/20 02:08:33;;;;;;;28.58;22.92;;;18.20;99.90;;;;;;5032879;28;20171;-47
2022/05/20 02:10:58;;;;;;;32.65;23.75;;;18.20;99.90;;;;;;5032587;28;20171;-49
2022/05/20 02:13:27;;;;;;;28.63;22.80;;;18.20;99.90;;;;;;5032445;28;20712;-47
2022/05/20 02:16:01;;;;;;;32.03;24.40;;;18.10;99.90;;;;;;5032620;28;20167;-46
2022/05/20 02:18:44;;;;;;;30.02;23.48;;;18.10;99.90;;;;;;5032522;28;20261;-47
2022/05/20 02:21:13;;;;;;;33.47;24.60;;;18.10;99.90;;;;;;5032336;28;20209;-48
2022/05/20 02:23:44;;;;;;;32.17;24.33;;;18.10;99.90;;;;;;5032295;28;20167;-46
2022/05/20 02:26:14;;;;;;;28.95;23.33;;;18.20;99.90;;;;;;5032304;28;20159;-47
2022/05/20 02:28:43;;;;;;;29.70;23.52;;;18.20;99.90;;;;;;5032200;28;20207;-48
2022/05/20 02:31:13;;;;;;;31.40;23.30;;;18.10;99.90;;;;;;5032172;28;20163;-46
2022/05/20 02:33:39;;;;;;;31.10;24.42;;;18.10;99.90;;;;;;5032090;28;20187;-47
2022/05/20 02:36:28;;;;;;;28.45;23.52;;;18.00;99.90;;;;;;5032084;28;20168;-47
2022/05/20 02:38:54;;;;;;;34.03;23.60;;;18.10;99.90;;;;;;5031848;28;20249;-47
2022/05/20 02:41:19;;;;;;;30.50;24.08;;;18.10;99.90;;;;;;5032255;28;20195;-48
2022/05/20 02:43:45;;;;;;;33.75;25.67;;;18.00;99.90;;;;;;5032044;28;20225;-48
2022/05/20 02:46:12;;;;;;;32.63;24.50;;;18.10;99.90;;;;;;5031991;28;20187;-47
2022/05/20 02:48:38;;;;;;;31.80;24.48;;;18.10;99.90;;;;;;5031816;28;20159;-46
2022/05/20 02:51:04;;;;;;;32.58;24.88;;;18.10;99.90;;;;;;5031946;28;20181;-47
2022/05/20 02:53:29;;;;;;;30.98;23.90;;;18.00;99.90;;;;;;5032203;28;20195;-48
2022/05/20 02:55:55;;;;;;;31.25;25.13;;;17.90;99.90;;;;;;5031947;28;20175;-47
2022/05/20 03:04:09;;;;;;;31.38;23.13;;;18.10;99.90;;;;;;5031650;28;20178;-47
2022/05/20 03:06:37;;;;;;;29.63;23.80;;;18.10;99.90;;;;;;5031897;28;20181;-48
2022/05/20 03:09:06;;;;;;;34.00;25.15;;;18.10;99.90;;;;;;5031783;28;20167;-48
2022/05/20 03:11:32;;;;;;;33.80;24.15;;;18.10;99.90;;;;;;5031663;28;20636;-48
2022/05/20 03:13:57;;;;;;;30.05;24.23;;;18.20;99.90;;;;;;5032045;28;20180;-48
2022/05/20 03:16:23;;;;;;;33.50;25.50;;;18.10;99.90;;;;;;5031744;28;20167;-48
2022/05/20 03:18:48;;;;;;;34.63;25.73;;;18.10;99.90;;;;;;5031875;28;20210;-47
2022/05/20 03:21:14;;;;;;;30.77;25.08;;;18.10;99.90;;;;;;5031697;28;20626;-47
2022/05/20 03:23:39;;;;;;;31.13;25.88;;;18.10;99.90;;;;;;5031693;28;20175;-48
2022/05/20 03:26:05;;;;;;;31.70;25.02;;;18.20;99.90;;;;;;5031626;28;20255;-47
2022/05/20 03:28:31;;;;;;;31.45;25.42;;;18.10;99.90;;;;;;5031610;28;20175;-48
2022/05/20 03:31:04;;;;;;;31.13;24.83;;;18.10;99.90;;;;;;5031848;28;20168;-48
2022/05/20 03:33:29;;;;;;;33.92;25.83;;;18.20;99.90;;;;;;5031456;28;20661;-48
2022/05/20 03:35:55;;;;;;;32.78;26.48;;;18.20;99.90;;;;;;5031572;28;20259;-48
2022/05/20 03:38:20;;;;;;;34.08;26.85;;;18.20;99.90;;;;;;5031772;28;20208;-49
2022/05/20 03:40:46;;;;;;;37.38;26.48;;;18.10;99.90;;;;;;5031498;28;20175;-48
2022/05/20 03:43:12;;;;;;;34.72;26.17;;;18.00;99.90;;;;;;5031562;28;20179;-48
2022/05/20 03:45:41;;;;;;;29.70;25.45;;;18.10;99.90;;;;;;5031496;28;20167;-47
2022/05/20 03:48:07;;;;;;;31.60;25.90;;;18.10;99.90;;;;;;5031709;28;20203;-47
2022/05/20 03:50:32;;;;;;;29.52;23.90;;;18.10;99.90;;;;;;5031377;28;20222;-47
2022/05/20 03:52:59;;;;;;;32.33;26.45;;;18.20;99.90;;;;;;5031528;28;20213;-47
2022/05/20 03:55:25;;;;;;;39.72;28.23;;;18.20;99.90;;;;;;5031576;28;20168;-48
2022/05/20 03:57:51;;;;;;;32.35;27.23;;;18.20;99.90;;;;;;5031821;28;20298;-48
2022/05/20 04:00:18;;;;;;;35.75;28.10;;;18.20;99.90;;;;;;5032594;28;20172;-47
2022/05/20 04:02:43;;;;;;;33.75;29.17;;;18.10;99.90;;;;;;5034823;28;20173;-47
2022/05/20 04:05:09;;;;;;;36.38;29.35;;;18.00;99.90;;;;;;5034737;28;20314;-47
2022/05/20 04:07:35;;;;;;;36.88;27.33;;;18.10;99.90;;;;;;5034839;28;20567;-48
2022/05/20 04:10:01;;;;;;;35.85;28.15;;;18.10;99.90;;;;;;5034864;28;20171;-47
2022/05/20 04:12:30;;;;;;;36.30;28.98;;;18.00;99.90;;;;;;5034944;28;20175;-47
2022/05/20 04:14:57;;;;;;;40.38;29.85;;;18.00;99.90;;;;;;5034586;28;20667;-48
2022/05/20 04:17:23;;;;;;;39.03;29.65;;;18.10;99.90;;;;;;5034575;28;20734;-46
2022/05/20 04:19:48;;;;;;;37.30;27.75;;;18.10;99.90;;;;;;5034990;28;20610;-47
2022/05/20 04:22:19;;;;;;;35.60;29.35;;;18.10;99.90;;;;;;5034502;28;20247;-47
2022/05/20 04:24:45;;;;;;;34.85;29.05;;;18.10;99.90;;;;;;5034481;28;20177;-48
2022/05/20 04:27:10;;;;;;;40.33;29.85;;;18.20;99.90;;;;;;5034654;28;20167;-46
2022/05/20 04:29:36;;;;;;;37.80;28.75;;;18.10;99.90;;;;;;5034545;28;20643;-46
2022/05/20 04:32:02;;;;;;;40.72;29.23;;;18.10;99.90;;;;;;5034232;28;20167;-46
2022/05/20 04:34:28;;;;;;;38.85;29.90;;;18.20;99.90;;;;;;5034263;28;20182;-46
2022/05/20 04:36:53;;;;;;;38.58;27.88;;;18.20;99.90;;;;;;5034123;28;20168;-47
2022/05/20 04:39:19;;;;;;;34.28;29.92;;;18.20;99.90;;;;;;5034447;28;20596;-46
2022/05/20 04:47:22;;;;;;;38.88;29.38;;;18.20;99.90;;;;;;5034065;28;20206;-47
2022/05/20 04:49:48;;;;;;;38.35;29.55;;;18.30;99.90;;;;;;5034302;28;20249;-47
2022/05/20 04:52:14;;;;;;;35.83;28.63;;;18.30;99.90;;;;;;5033991;28;20650;-46
2022/05/20 04:54:52;;;;;;;36.83;29.35;;;18.40;99.90;;;;;;5034069;28;20204;-47
2022/05/20 04:57:33;;;;;;;42.80;29.27;;;18.40;99.90;;;;;;5034371;28;20227;-47
2022/05/20 05:00:19;;;;;;;35.08;28.85;;;18.40;99.90;;;;;;5033623;28;20662;-47
2022/05/20 05:02:45;;;;;;;39.55;28.98;;;18.40;99.90;;;;;;5033698;28;20175;-46
2022/05/20 05:05:14;;;;;;;38.58;29.08;;;18.50;99.90;;;;;;5033472;28;20215;-46
2022/05/20 05:07:45;;;;;;;36.83;28.38;;;18.60;99.90;;;;;;5033643;28;20168;-46
2022/05/20 05:10:13;;;;;;;36.80;29.38;;;18.60;99.90;;;;;;5033599;28;20262;-46
2022/05/20 05:12:38;;;;;;;38.45;29.05;;;18.60;99.90;;;;;;5032363;28;20168;-46
2022/05/20 05:15:05;;;;;;;35.75;28.00;;;18.60;99.90;;;;;;5033493;28;20178;-46
2022/05/20 05:20:21;;;;;;;38.97;29.10;;;18.80;99.90;;;;;;5033609;28;20178;-46
2022/05/20 05:22:49;;;;;;;36.67;28.77;;;18.90;99.90;;;;;;5033362;28;20175;-47
2022/05/20 05:25:15;;;;;;;35.38;28.00;;;18.90;99.90;;;;;;5033217;28;20164;-46
2022/05/20 05:27:41;;;;;;;35.08;27.40;;;19.10;99.90;;;;;;5033318;28;20182;-47
2022/05/20 05:30:09;;;;;;;32.75;26.08;;;19.00;99.90;;;;;;5033280;28;20171;-46
2022/05/20 05:32:35;;;;;;;31.42;26.52;;;19.00;99.90;;;;;;5033494;28;20179;-46
2022/05/20 05:35:02;;;;;;;32.25;24.42;;;19.10;99.90;;;;;;5033292;28;20167;-48
2022/05/20 05:37:28;;;;;;;28.38;21.90;;;19.20;99.90;;;;;;5033336;28;20207;-48
2022/05/20 05:39:53;;;;;;;28.08;23.45;;;19.20;99.90;;;;;;5032988;28;20629;-46
2022/05/20 05:42:20;;;;;;;26.17;21.92;;;19.10;99.90;;;;;;5033520;28;20167;-46
2022/05/20 05:44:46;;;;;;;29.38;24.15;;;19.10;99.90;;;;;;5032994;28;20176;-46
2022/05/20 05:47:12;;;;;;;31.38;23.20;;;19.10;99.90;;;;;;5032732;28;20536;-46
2022/05/20 05:49:37;;;;;;;27.80;20.30;;;19.40;99.90;;;;;;5032775;28;20167;-46
2022/05/20 05:52:04;;;;;;;27.77;23.65;;;19.40;99.90;;;;;;5032913;28;20167;-46
2022/05/20 05:54:30;;;;;;;32.95;22.95;;;19.40;99.90;;;;;;5032634;28;20542;-46
2022/05/20 05:56:56;;;;;;;30.73;22.13;;;19.50;99.90;;;;;;5032841;28;20167;-46
2022/05/20 05:59:22;;;;;;;27.25;21.83;;;19.50;99.90;;;;;;5032548;28;20755;-46
2022/05/20 06:01:47;;;;;;;27.70;22.63;;;19.70;99.90;;;;;;5032822;28;20246;-46
2022/05/20 06:04:13;;;;;;;30.08;23.05;;;19.70;99.90;;;;;;5032613;28;20302;-46
2022/05/20 06:06:38;;;;;;;29.38;23.65;;;19.90;99.90;;;;;;5032547;28;20614;-47
2022/05/20 06:09:04;;;;;;;31.17;24.27;;;20.10;99.90;;;;;;5032599;28;20164;-47
2022/05/20 06:11:29;;;;;;;37.00;26.83;;;20.20;99.90;;;;;;5032489;28;20732;-47
2022/05/20 06:13:56;;;;;;;32.05;24.67;;;20.50;99.90;;;;;;5032422;28;20656;-47
2022/05/20 06:16:21;;;;;;;39.40;24.80;;;20.40;99.90;;;;;;5032769;28;20199;-47
2022/05/20 06:18:48;;;;;;;32.47;25.23;;;20.50;99.90;;;;;;5032469;28;20246;-50
2022/05/20 06:21:14;;;;;;;33.78;25.85;;;20.40;99.90;;;;;;5032259;28;20194;-47
2022/05/20 06:23:39;;;;;;;33.75;26.45;;;20.40;99.90;;;;;;5031961;28;20175;-48
2022/05/20 06:26:05;;;;;;;32.50;26.23;;;20.60;99.90;;;;;;5032218;28;20178;-47
2022/05/20 06:28:30;;;;;;;33.65;27.05;;;20.60;99.90;;;;;;5032120;28;20171;-48
2022/05/20 06:30:56;;;;;;;33.75;27.58;;;20.50;99.90;;;;;;5032149;28;20254;-48
2022/05/20 06:33:22;;;;;;;35.28;27.55;;;20.70;99.90;;;;;;5047753;28;20197;-46
2022/05/20 06:41:16;;;;;;;35.65;27.80;;;20.60;99.90;;;;;;5050627;28;20177;-48
2022/05/20 06:43:42;;;;;;;31.80;26.02;;;20.90;99.90;;;;;;5049536;28;20262;-53
2022/05/20 06:46:08;;;;;;;31.60;26.20;;;20.90;99.90;;;;;;5050850;28;20170;-55
2022/05/20 06:48:42;;;;;;;31.35;25.67;;;21.10;99.90;;;;;;5050838;28;20174;-53
2022/05/20 06:51:09;;;;;;;32.47;26.27;;;21.20;99.90;;;;;;5050781;28;20511;-51
2022/05/20 06:53:34;;;;;;;33.95;26.27;;;21.50;99.90;;;;;;5050813;28;20159;-48
2022/05/20 06:56:00;;;;;;;34.38;26.08;;;21.70;99.90;;;;;;5051700;28;20174;-48
2022/05/20 06:58:26;;;;;;;33.78;27.25;;;21.50;99.90;;;;;;5051792;28;20575;-48
2022/05/20 07:00:52;;;;;;;35.88;26.83;;;21.30;99.90;;;;;;5051818;28;20163;-46
2022/05/20 07:03:20;;;;;;;31.48;26.23;;;21.30;99.90;;;;;;5052099;28;20640;-47
2022/05/20 07:05:46;;;;;;;35.63;27.85;;;21.50;99.90;;;;;;5051577;28;20305;-48
2022/05/20 07:08:12;;;;;;;40.45;28.88;;;21.60;99.90;;;;;;5051951;28;20530;-48
2022/05/20 07:10:39;;;;;;;34.22;27.50;;;21.40;99.90;;;;;;5051640;28;20241;-48
2022/05/20 07:13:06;;;;;;;38.88;28.63;;;21.50;99.90;;;;;;5051855;28;20198;-48
2022/05/20 07:15:31;;;;;;;34.53;28.08;;;21.60;99.90;;;;;;5051844;28;20194;-48
2022/05/20 07:17:57;;;;;;;39.35;28.17;;;21.40;99.90;;;;;;5051543;28;20622;-48
2022/05/20 07:20:22;;;;;;;35.22;26.75;;;21.50;99.90;;;;;;5051611;28;20185;-47
2022/05/20 07:22:48;;;;;;;36.65;27.58;;;21.20;99.90;;;;;;5051879;28;20186;-48
2022/05/20 07:25:13;;;;;;;34.78;26.55;;;21.20;99.90;;;;;;5052076;28;20163;-48
2022/05/20 07:27:39;;;;;;;35.88;26.45;;;21.20;99.90;;;;;;5051550;28;20536;-48
2022/05/20 07:30:06;;;;;;;37.15;28.35;;;21.20;99.90;;;;;;5051749;28;20222;-47
2022/05/20 07:32:32;;;;;;;34.83;27.75;;;21.10;99.90;;;;;;5051437;28;20201;-47
2022/05/20 07:34:58;;;;;;;35.42;27.98;;;21.20;99.90;;;;;;5051723;28;20198;-48
2022/05/20 07:37:23;;;;;;;33.70;27.85;;;21.20;99.90;;;;;;5055140;28;20198;-48
2022/05/20 07:39:49;;;;;;;31.85;25.85;;;21.30;99.90;;;;;;5055703;28;20181;-48
2022/05/20 07:42:14;;;;;;;32.72;26.33;;;21.50;99.90;;;;;;5055225;28;20178;-46
2022/05/20 07:44:41;;;;;;;32.33;26.42;;;21.60;99.90;;;;;;5055224;28;20175;-47
2022/05/20 07:47:07;;;;;;;34.22;27.42;;;21.70;99.90;;;;;;5055329;28;20167;-48
2022/05/20 07:49:33;;;;;;;34.17;27.50;;;21.80;99.90;;;;;;5055082;28;20232;-47
2022/05/20 07:52:02;;;;;;;39.25;29.77;;;22.00;99.90;;;;;;5055040;28;20664;-48
2022/05/20 07:54:32;;;;;;;35.10;28.25;;;22.00;99.90;;;;;;5055211;28;20193;-47
2022/05/20 07:57:07;;;;;;;34.17;29.38;;;22.20;99.90;;;;;;5054922;28;20167;-47
2022/05/20 07:59:53;;;;;;;32.45;26.73;;;22.30;99.90;;;;;;5055101;28;20277;-47
2022/05/20 08:02:22;;;;;;;33.33;28.38;;;22.40;99.90;;;;;;5055088;28;20163;-46
2022/05/20 08:04:58;;;;;;;35.58;27.70;;;22.40;99.90;;;;;;5053746;28;20233;-48
2022/05/20 08:07:26;;;;;;;37.97;30.60;;;22.50;99.90;;;;;;5055295;28;20158;-48
2022/05/20 08:09:51;;;;;;;38.55;32.50;;;22.10;99.90;;;;;;5055248;28;20171;-46
2022/05/20 08:12:17;;;;;;;35.78;31.30;;;22.10;99.90;;;;;;5055290;28;20183;-46
2022/05/20 08:14:42;;;;;;;37.70;32.85;;;22.10;99.90;;;;;;5054951;28;20213;-48
2022/05/20 08:17:08;;;;;;;37.78;32.60;;;22.10;99.90;;;;;;5054737;28;20159;-47
2022/05/20 08:19:34;;;;;;;39.65;35.35;;;22.20;99.90;;;;;;5054479;28;20175;-48
2022/05/20 08:21:59;;;;;;;39.80;35.70;;;22.30;99.90;;;;;;5055481;28;20175;-47
2022/05/20 08:24:25;;;;;;;42.35;36.30;;;22.40;99.90;;;;;;5054896;28;20178;-48
2022/05/20 08:26:52;;;;;;;40.65;36.40;;;22.40;99.90;;;;;;5054654;28;20190;-46
2022/05/20 08:29:18;;;;;;;40.33;35.65;;;22.20;99.90;;;;;;5055030;28;20524;-47
2022/05/20 08:31:45;;;;;;;39.40;35.05;;;22.20;99.90;;;;;;5054357;28;20227;-48
2022/05/20 08:34:13;;;;;;;47.35;35.50;;;22.50;99.90;;;;;;5054347;28;20216;-47
2022/05/20 08:36:40;;;;;;;39.70;34.72;;;22.60;99.90;;;;;;5054525;28;20182;-48
2022/05/20 08:39:10;;;;;;;41.17;36.60;;;22.70;99.90;;;;;;5054487;28;20214;-46
2022/05/20 08:41:40;;;;;;;42.85;38.50;;;22.90;99.90;;;;;;5054182;28;20650;-46
2022/05/20 08:44:11;;;;;;;46.10;39.03;;;23.10;99.90;;;;;;5052698;28;20640;-47
2022/05/20 08:46:37;;;;;;;46.10;40.65;;;23.30;99.90;;;;;;5053955;28;20177;-46
2022/05/20 08:49:03;;;;;;;47.47;39.05;;;23.40;99.90;;;;;;5053896;28;20523;-46
2022/05/20 08:51:33;;;;;;;45.45;39.75;;;23.40;99.90;;;;;;5053910;28;20181;-46
2022/05/20 08:54:02;;;;;;;49.35;42.30;;;23.20;99.90;;;;;;5053816;28;20651;-47
2022/05/20 08:56:28;;;;;;;48.00;41.72;;;23.20;99.90;;;;;;5054089;28;20182;-46
2022/05/20 08:59:02;;;;;;;44.63;39.75;;;23.10;99.90;;;;;;5053685;28;20570;-46
2022/05/20 09:01:43;;;;;;;46.75;39.13;;;23.30;99.90;;;;;;5053694;28;20166;-47
2022/05/20 09:04:11;;;;;;;44.28;39.42;;;23.80;99.90;;;;;;5053569;28;20210;-47
2022/05/20 09:07:01;;;;;;;44.60;39.47;;;24.20;99.90;;;;;;5053676;28;20654;-46
2022/05/20 09:09:50;;;;;;;42.72;38.20;;;23.90;99.90;;;;;;5053743;28;20178;-46
2022/05/20 09:12:37;;;;;;;43.17;36.28;;;24.10;99.90;;;;;;5053456;28;20165;-47
2022/05/20 09:17:51;;;;;;;44.35;37.90;;;24.40;99.90;;;;;;5053604;28;20205;-47
2022/05/20 09:20:22;;;;;;;39.58;35.38;;;24.50;99.90;;;;;;5053358;28;20536;-47
2022/05/20 09:23:04;;;;;;;39.47;35.42;;;24.50;99.90;;;;;;5053569;28;20158;-47
2022/05/20 09:25:33;;;;;;;36.88;33.15;;;24.70;99.90;;;;;;5053284;28;20166;-47
2022/05/20 09:28:19;;;;;;;35.05;30.90;;;24.50;99.90;;;;;;5053420;28;20174;-48
2022/05/20 09:30:50;;;;;;;37.95;32.05;;;24.60;99.90;;;;;;5051974;28;20169;-47
2022/05/20 09:33:22;;;;;;;34.80;31.10;;;24.50;99.90;;;;;;5052975;28;20165;-48
2022/05/20 09:35:57;;;;;;;40.55;33.35;;;24.60;99.90;;;;;;5053358;28;20177;-48
2022/05/20 09:38:41;;;;;;;33.97;30.60;;;24.80;99.90;;;;;;5053061;28;20209;-47
2022/05/20 09:41:15;;;;;;;33.00;29.70;;;25.00;99.90;;;;;;5052930;28;20245;-46
2022/05/20 09:43:44;;;;;;;32.30;29.02;;;25.20;99.90;;;;;;5052846;28;20168;-46
2022/05/20 09:46:39;;;;;;;32.22;28.83;;;25.20;99.90;;;;;;5052801;28;20173;-47
2022/05/20 09:49:16;;;;;;;33.20;29.23;;;25.00;99.90;;;;;;5052739;28;20255;-47
2022/05/20 09:51:50;;;;;;;32.58;29.13;;;25.20;99.90;;;;;;5052831;28;20311;-47
2022/05/20 09:54:29;;;;;;;31.52;28.08;;;25.60;99.90;;;;;;5052726;28;20180;-46
2022/05/20 09:57:13;;;;;;;30.75;27.55;;;25.70;99.90;;;;;;5052607;28;20266;-47
2022/05/20 10:00:06;;;;;;;28.60;25.58;;;25.20;99.90;;;;;;5052258;28;20197;-47
2022/05/20 10:02:38;;;;;;;31.95;26.05;;;25.30;99.90;;;;;;5052578;28;20205;-46
2022/05/20 10:05:28;;;;;;;33.92;26.35;;;25.60;99.90;;;;;;5052284;28;20218;-46
2022/05/20 10:08:17;;;;;;;30.33;25.65;;;25.70;99.90;;;;;;5052443;28;20169;-46
2022/05/20 10:10:42;;;;;;;31.83;24.58;;;25.60;99.90;;;;;;5052447;28;20174;-46
2022/05/20 10:13:17;;;;;;;26.73;22.70;;;25.70;99.90;;;;;;5052363;28;20170;-48
2022/05/20 10:15:48;;;;;;;25.33;20.35;;;25.80;99.90;;;;;;5052312;28;20161;-48
2022/05/20 10:18:21;;;;;;;25.77;20.25;;;26.00;99.90;;;;;;5052062;28;20560;-48
2022/05/20 10:21:15;;;;;;;27.08;19.17;;;26.00;99.90;;;;;;5052524;28;20516;-47
2022/05/20 10:24:18;;;;;;;23.05;19.10;;;26.10;99.90;;;;;;5052161;28;20209;-48
2022/05/20 10:26:55;;;;;;;23.73;19.10;;;26.20;99.90;;;;;;5052047;28;20180;-48
2022/05/20 10:32:34;;;;;;;23.45;19.05;;;26.30;99.90;;;;;;5051962;28;20177;-48
2022/05/20 10:35:02;;;;;;;21.50;19.20;;;26.20;99.90;;;;;;5051993;28;20158;-48
2022/05/20 10:37:58;;;;;;;25.10;19.92;;;26.30;99.90;;;;;;5051912;28;20690;-48
2022/05/20 10:40:59;;;;;;;20.88;17.85;;;26.10;99.90;;;;;;5052014;28;20623;-48
2022/05/20 10:49:47;;;;;;;22.85;17.15;;;26.20;99.90;;;;;;5052147;28;20177;-47
2022/05/20 10:52:46;;;;;;;19.45;16.42;;;26.30;99.90;;;;;;5051853;28;20219;-48
2022/05/20 10:55:43;;;;;;;18.00;15.88;;;26.10;99.90;;;;;;5052075;28;20257;-48
2022/05/20 10:58:23;;;;;;;17.48;15.30;;;26.20;99.90;;;;;;5052003;28;20606;-47
2022/05/20 11:00:55;;;;;;;18.52;16.63;;;26.10;99.90;;;;;;5052095;28;20170;-48
2022/05/20 11:03:39;;;;;;;22.08;17.13;;;26.10;99.90;;;;;;5052207;28;20174;-48
2022/05/20 11:06:33;;;;;;;19.02;16.40;;;26.10;99.90;;;;;;5051586;28;20222;-48
2022/05/20 11:09:36;;;;;;;15.05;13.27;;;26.20;99.90;;;;;;5052199;28;20162;-48
2022/05/20 11:12:04;;;;;;;17.40;15.13;;;26.10;99.90;;;;;;5055771;28;20568;-48
2022/05/20 11:14:29;;;;;;;18.90;14.93;;;26.20;99.90;;;;;;5055619;28;20173;-48
2022/05/20 11:17:28;;;;;;;18.63;16.02;;;26.20;99.90;;;;;;5055619;28;20166;-47
2022/05/20 11:20:07;;;;;;;24.17;15.68;;;26.20;99.90;;;;;;5055667;28;20173;-47
2022/05/20 11:23:10;;;;;;;17.27;15.07;;;26.40;99.90;;;;;;5055554;28;20650;-47
2022/05/20 11:26:09;;;;;;;18.38;15.48;;;26.70;99.90;;;;;;5055491;28;20166;-48
2022/05/20 11:29:04;;;;;;;15.25;13.73;;;26.60;99.90;;;;;;5055610;28;20173;-47
2022/05/20 11:31:49;;;;;;;16.58;13.90;;;26.70;99.90;;;;;;5033751;28;20666;-47
2022/05/20 11:34:42;;;;;;;16.42;13.25;;;26.80;99.90;;;;;;5055396;28;20173;-46
2022/05/20 11:37:27;;;;;;;16.50;13.05;;;26.80;99.90;;;;;;5055503;28;20174;-47
2022/05/20 11:39:58;;;;;;;11.60;10.40;;;26.80;99.90;;;;;;5055379;28;20182;-45
2022/05/20 11:42:48;;;;;;;14.05;11.05;;;27.40;99.90;;;;;;5055230;28;20208;-46
2022/05/20 11:45:32;;;;;;;13.32;11.50;;;27.40;99.90;;;;;;5055188;28;20205;-48
2022/05/20 11:48:29;;;;;;;15.73;11.88;;;27.40;99.90;;;;;;5055079;28;20635;-46
2022/05/20 11:51:17;;;;;;;13.30;11.93;;;27.00;99.90;;;;;;5055224;28;20189;-47
2022/05/20 11:53:50;;;;;;;12.68;11.48;;;26.80;99.90;;;;;;5054451;28;20648;-47
2022/05/20 11:56:23;;;;;;;11.93;10.73;;;26.80;99.90;;;;;;5054899;28;20762;-47
2022/05/20 11:59:15;;;;;;;14.57;10.77;;;26.70;99.90;;;;;;5055185;28;20214;-47
2022/05/20 12:01:43;;;;;;;11.07;9.77;;;26.70;99.90;;;;;;5055133;28;20543;-48
2022/05/20 12:04:11;;;;;;;12.27;9.25;;;26.40;99.90;;;;;;5054603;28;20210;-47
2022/05/20 12:06:51;;;;;;;11.77;10.32;;;26.20;99.90;;;;;;5054817;28;20245;-46
2022/05/20 12:09:40;;;;;;;10.77;9.68;;;25.90;99.90;;;;;;5055044;28;20511;-47
2022/05/20 12:12:20;;;;;;;10.80;9.57;;;25.70;99.90;;;;;;5054931;28;20304;-48
2022/05/20 12:15:10;;;;;;;12.40;10.05;;;25.60;99.90;;;;;;5054877;28;20182;-47
2022/05/20 12:17:41;;;;;;;11.82;10.75;;;25.30;99.90;;;;;;5054492;28;20198;-49
2022/05/20 12:26:18;;;;;;;13.80;11.00;;;25.10;99.90;;;;;;5054655;28;20240;-46
2022/05/20 12:28:44;;;;;;;16.60;11.43;;;25.10;99.90;;;;;;5053186;28;20174;-47
2022/05/20 12:31:24;;;;;;;14.30;11.00;;;24.90;99.90;;;;;;5054271;28;20182;-47
2022/05/20 12:33:57;;;;;;;12.05;10.57;;;24.90;99.90;;;;;;5054687;28;20166;-47
2022/05/20 12:36:34;;;;;;;17.30;12.35;;;24.90;99.90;;;;;;5054248;28;20175;-48
2022/05/20 12:39:09;;;;;;;12.75;11.30;;;24.80;99.90;;;;;;5054340;28;20212;-48
2022/05/20 12:41:39;;;;;;;14.70;12.60;;;24.70;99.90;;;;;;5054152;28;20174;-48
2022/05/20 12:44:17;;;;;;;26.88;13.20;;;24.60;99.90;;;;;;5054031;28;20171;-48
2022/05/20 12:46:51;;;;;;;19.13;14.65;;;24.30;99.90;;;;;;5054249;28;20174;-48
2022/05/20 12:49:18;;;;;;;18.05;15.20;;;23.90;99.90;;;;;;5054289;28;20248;-47
2022/05/20 12:51:47;;;;;;;17.85;15.50;;;23.70;99.90;;;;;;5054168;28;20203;-47
2022/05/20 12:54:20;;;;;;;20.60;13.00;;;23.60;99.90;;;;;;5053921;28;20182;-49
2022/05/20 12:56:46;;;;;;;17.83;13.82;;;23.60;99.90;;;;;;5053809;28;20159;-47
2022/05/20 12:59:21;;;;;;;15.95;13.70;;;23.50;99.90;;;;;;5054009;28;20253;-49
2022/05/20 13:01:57;;;;;;;18.63;14.88;;;23.40;99.90;;;;;;5054268;28;20204;-48
2022/05/20 13:04:26;;;;;;;16.17;14.60;;;23.30;99.90;;;;;;5053550;28;20695;-48
2022/05/20 13:06:52;;;;;;;15.55;14.00;;;23.20;99.90;;;;;;5054191;28;20174;-48
2022/05/20 13:09:24;;;;;;;18.15;13.10;;;23.10;99.90;;;;;;5053898;28;20209;-48
2022/05/20 13:11:52;;;;;;;19.88;12.80;;;23.20;99.90;;;;;;5053853;28;20224;-48
2022/05/20 13:14:22;;;;;;;12.25;9.38;;;23.20;99.90;;;;;;5053799;28;20187;-48
2022/05/20 13:16:52;;;;;;;11.20;9.43;;;23.30;99.90;;;;;;5053793;28;20167;-47
2022/05/20 13:19:28;;;;;;;13.85;9.45;;;23.50;99.90;;;;;;5053584;28;20659;-48
2022/05/20 13:22:02;;;;;;;8.23;6.90;;;23.70;99.90;;;;;;5053411;28;20170;-49
2022/05/20 13:24:29;;;;;;;10.02;7.65;;;23.70;99.90;;;;;;5053542;28;20175;-48
2022/05/20 13:27:13;;;;;;;12.02;7.38;;;23.90;99.90;;;;;;5053235;28;20183;-48
2022/05/20 13:29:40;;;;;;;11.48;7.00;;;24.20;99.90;;;;;;5053164;28;20170;-48